sensor_id;sensor_type;location;lat;lon;timestamp;P1;durP1;ratioP1;P2;durP2;ratioP2
6077;SDS011;3067;49.470;10.394;2023-08-20T00:01:09;12.77;;;7.93;;
6077;SDS011;3067;49.470;10.394;2023-08-20T00:03:41;11.93;;;8.10;;
6077;SDS011;3067;49.470;10.394;2023-08-20T00:06:09;8.90;;;8.07;;
6077;SDS011;3067;49.470;10.394;2023-08-20T00:08:36;10.53;;;7.50;;
6077;SDS011;3067;49.470;10.394;2023-08-20T00:11:04;9.73;;;7.00;;
6077;SDS011;3067;49.470;10.394;2023-08-20T00:13:31;12.07;;;6.97;;
6077;SDS011;3067;49.470;10.394;2023-08-20T00:15:59;11.43;;;8.07;;
6077;SDS011;3067;49.470;10.394;2023-08-20T00:18:26;10.57;;;7.77;;
6077;SDS011;3067;49.470;10.394;2023-08-20T00:20:55;24.20;;;8.50;;
6077;SDS011;3067;49.470;10.394;2023-08-20T00:23:23;10.20;;;7.63;;
6077;SDS011;3067;49.470;10.394;2023-08-20T00:25:51;17.20;;;9.80;;
6077;SDS011;3067;49.470;10.394;2023-08-20T00:28:18;16.23;;;9.00;;
6077;SDS011;3067;49.470;10.394;2023-08-20T00:30:47;12.90;;;9.10;;
6077;SDS011;3067;49.470;10.394;2023-08-20T00:33:15;10.43;;;9.03;;
6077;SDS011;3067;49.470;10.394;2023-08-20T00:35:42;14.67;;;9.00;;
6077;SDS011;3067;49.470;10.394;2023-08-20T00:38:10;10.27;;;9.27;;
6077;SDS011;3067;49.470;10.394;2023-08-20T00:40:37;14.53;;;9.53;;
6077;SDS011;3067;49.470;10.394;2023-08-20T00:43:04;18.90;;;9.40;;
6077;SDS011;3067;49.470;10.394;2023-08-20T00:45:31;13.00;;;9.10;;
6077;SDS011;3067;49.470;10.394;2023-08-20T00:47:58;10.40;;;9.40;;
6077;SDS011;3067;49.470;10.394;2023-08-20T00:50:26;14.03;;;9.83;;
6077;SDS011;3067;49.470;10.394;2023-08-20T00:52:53;12.10;;;10.07;;
6077;SDS011;3067;49.470;10.394;2023-08-20T00:55:22;11.40;;;9.80;;
6077;SDS011;3067;49.470;10.394;2023-08-20T00:57:49;10.93;;;9.20;;
6077;SDS011;3067;49.470;10.394;2023-08-20T01:00:16;12.50;;;10.00;;
6077;SDS011;3067;49.470;10.394;2023-08-20T01:02:44;10.90;;;9.30;;
6077;SDS011;3067;49.470;10.394;2023-08-20T01:05:11;10.33;;;9.37;;
6077;SDS011;3067;49.470;10.394;2023-08-20T01:07:41;13.10;;;9.77;;
6077;SDS011;3067;49.470;10.394;2023-08-20T01:10:18;16.37;;;10.00;;
6077;SDS011;3067;49.470;10.394;2023-08-20T01:12:51;15.60;;;9.47;;
6077;SDS011;3067;49.470;10.394;2023-08-20T01:15:19;14.03;;;10.13;;
6077;SDS011;3067;49.470;10.394;2023-08-20T01:17:48;11.13;;;9.40;;
6077;SDS011;3067;49.470;10.394;2023-08-20T01:20:15;14.13;;;10.37;;
6077;SDS011;3067;49.470;10.394;2023-08-20T01:22:50;12.70;;;10.80;;
6077;SDS011;3067;49.470;10.394;2023-08-20T01:25:32;14.73;;;10.30;;
6077;SDS011;3067;49.470;10.394;2023-08-20T01:28:20;15.90;;;9.93;;
6077;SDS011;3067;49.470;10.394;2023-08-20T01:30:49;10.97;;;9.97;;
6077;SDS011;3067;49.470;10.394;2023-08-20T01:33:17;15.63;;;10.10;;
6077;SDS011;3067;49.470;10.394;2023-08-20T01:35:45;10.87;;;9.87;;
6077;SDS011;3067;49.470;10.394;2023-08-20T01:38:12;11.03;;;9.90;;
6077;SDS011;3067;49.470;10.394;2023-08-20T01:40:39;12.80;;;9.57;;
6077;SDS011;3067;49.470;10.394;2023-08-20T01:43:06;14.30;;;9.47;;
6077;SDS011;3067;49.470;10.394;2023-08-20T01:45:35;13.83;;;9.53;;
6077;SDS011;3067;49.470;10.394;2023-08-20T01:48:02;12.87;;;10.00;;
6077;SDS011;3067;49.470;10.394;2023-08-20T01:50:29;11.70;;;9.43;;
6077;SDS011;3067;49.470;10.394;2023-08-20T01:52:57;14.97;;;9.77;;
6077;SDS011;3067;49.470;10.394;2023-08-20T01:55:24;13.83;;;9.77;;
6077;SDS011;3067;49.470;10.394;2023-08-20T01:57:51;16.40;;;9.10;;
6077;SDS011;3067;49.470;10.394;2023-08-20T02:00:18;10.53;;;9.50;;
6077;SDS011;3067;49.470;10.394;2023-08-20T02:02:46;11.43;;;9.87;;
6077;SDS011;3067;49.470;10.394;2023-08-20T02:05:13;10.63;;;9.30;;
6077;SDS011;3067;49.470;10.394;2023-08-20T02:07:40;13.07;;;9.80;;
6077;SDS011;3067;49.470;10.394;2023-08-20T02:10:08;14.07;;;10.00;;
6077;SDS011;3067;49.470;10.394;2023-08-20T02:12:35;11.20;;;9.20;;
6077;SDS011;3067;49.470;10.394;2023-08-20T02:15:02;10.47;;;9.40;;
6077;SDS011;3067;49.470;10.394;2023-08-20T02:17:30;14.07;;;9.03;;
6077;SDS011;3067;49.470;10.394;2023-08-20T02:19:58;16.63;;;9.47;;
6077;SDS011;3067;49.470;10.394;2023-08-20T02:22:25;11.97;;;10.33;;
6077;SDS011;3067;49.470;10.394;2023-08-20T02:24:54;13.27;;;9.20;;
6077;SDS011;3067;49.470;10.394;2023-08-20T02:27:21;15.40;;;10.73;;
6077;SDS011;3067;49.470;10.394;2023-08-20T02:29:48;11.13;;;10.03;;
6077;SDS011;3067;49.470;10.394;2023-08-20T02:32:16;10.53;;;9.43;;
6077;SDS011;3067;49.470;10.394;2023-08-20T02:34:44;12.47;;;10.33;;
6077;SDS011;3067;49.470;10.394;2023-08-20T02:37:16;11.13;;;10.10;;
6077;SDS011;3067;49.470;10.394;2023-08-20T02:39:43;11.50;;;9.90;;
6077;SDS011;3067;49.470;10.394;2023-08-20T02:42:10;10.77;;;9.77;;
6077;SDS011;3067;49.470;10.394;2023-08-20T02:44:37;12.33;;;9.80;;
6077;SDS011;3067;49.470;10.394;2023-08-20T02:47:04;13.30;;;9.50;;
6077;SDS011;3067;49.470;10.394;2023-08-20T02:49:31;11.07;;;9.97;;
6077;SDS011;3067;49.470;10.394;2023-08-20T02:51:58;10.13;;;9.17;;
6077;SDS011;3067;49.470;10.394;2023-08-20T02:54:27;10.00;;;9.10;;
6077;SDS011;3067;49.470;10.394;2023-08-20T02:56:57;12.97;;;9.93;;
6077;SDS011;3067;49.470;10.394;2023-08-20T02:59:24;11.00;;;10.00;;
6077;SDS011;3067;49.470;10.394;2023-08-20T03:01:51;12.00;;;9.70;;
6077;SDS011;3067;49.470;10.394;2023-08-20T03:04:18;10.93;;;9.83;;
6077;SDS011;3067;49.470;10.394;2023-08-20T03:06:45;10.30;;;9.40;;
6077;SDS011;3067;49.470;10.394;2023-08-20T03:09:12;10.57;;;9.47;;
6077;SDS011;3067;49.470;10.394;2023-08-20T03:11:40;20.80;;;10.30;;
6077;SDS011;3067;49.470;10.394;2023-08-20T03:14:08;13.90;;;11.23;;
6077;SDS011;3067;49.470;10.394;2023-08-20T03:16:35;21.53;;;11.07;;
6077;SDS011;3067;49.470;10.394;2023-08-20T03:19:02;12.33;;;11.00;;
6077;SDS011;3067;49.470;10.394;2023-08-20T03:21:29;11.97;;;10.77;;
6077;SDS011;3067;49.470;10.394;2023-08-20T03:23:59;14.77;;;10.63;;
6077;SDS011;3067;49.470;10.394;2023-08-20T03:26:26;12.00;;;10.90;;
6077;SDS011;3067;49.470;10.394;2023-08-20T03:28:54;13.63;;;11.80;;
6077;SDS011;3067;49.470;10.394;2023-08-20T03:31:22;14.23;;;11.90;;
6077;SDS011;3067;49.470;10.394;2023-08-20T03:33:49;16.10;;;12.37;;
6077;SDS011;3067;49.470;10.394;2023-08-20T03:36:16;15.20;;;12.00;;
6077;SDS011;3067;49.470;10.394;2023-08-20T03:38:43;15.23;;;11.60;;
6077;SDS011;3067;49.470;10.394;2023-08-20T03:41:10;20.00;;;12.20;;
6077;SDS011;3067;49.470;10.394;2023-08-20T03:43:37;12.70;;;11.43;;
6077;SDS011;3067;49.470;10.394;2023-08-20T03:46:06;12.27;;;11.07;;
6077;SDS011;3067;49.470;10.394;2023-08-20T03:48:33;15.30;;;10.90;;
6077;SDS011;3067;49.470;10.394;2023-08-20T03:51:00;18.23;;;11.47;;
6077;SDS011;3067;49.470;10.394;2023-08-20T03:53:27;15.30;;;11.50;;
6077;SDS011;3067;49.470;10.394;2023-08-20T03:55:54;12.37;;;11.07;;
6077;SDS011;3067;49.470;10.394;2023-08-20T03:58:21;16.53;;;10.83;;
6077;SDS011;3067;49.470;10.394;2023-08-20T04:00:48;12.47;;;10.93;;
6077;SDS011;3067;49.470;10.394;2023-08-20T04:03:17;16.67;;;10.90;;
6077;SDS011;3067;49.470;10.394;2023-08-20T04:05:44;15.33;;;11.40;;
6077;SDS011;3067;49.470;10.394;2023-08-20T04:08:11;11.97;;;10.73;;
6077;SDS011;3067;49.470;10.394;2023-08-20T04:10:42;16.77;;;11.87;;
6077;SDS011;3067;49.470;10.394;2023-08-20T04:13:10;15.43;;;12.10;;
6077;SDS011;3067;49.470;10.394;2023-08-20T04:15:39;13.50;;;11.53;;
6077;SDS011;3067;49.470;10.394;2023-08-20T04:18:06;13.53;;;11.23;;
6077;SDS011;3067;49.470;10.394;2023-08-20T04:20:35;15.30;;;11.60;;
6077;SDS011;3067;49.470;10.394;2023-08-20T04:23:02;16.37;;;11.90;;
6077;SDS011;3067;49.470;10.394;2023-08-20T04:25:29;15.67;;;11.70;;
6077;SDS011;3067;49.470;10.394;2023-08-20T04:27:56;14.40;;;11.17;;
6077;SDS011;3067;49.470;10.394;2023-08-20T04:30:23;12.70;;;10.50;;
6077;SDS011;3067;49.470;10.394;2023-08-20T04:32:50;13.00;;;11.60;;
6077;SDS011;3067;49.470;10.394;2023-08-20T04:35:18;13.53;;;11.03;;
6077;SDS011;3067;49.470;10.394;2023-08-20T04:37:46;20.00;;;9.80;;
6077;SDS011;3067;49.470;10.394;2023-08-20T04:40:13;10.63;;;9.60;;
6077;SDS011;3067;49.470;10.394;2023-08-20T04:42:40;11.00;;;9.43;;
6077;SDS011;3067;49.470;10.394;2023-08-20T04:45:08;10.50;;;9.40;;
6077;SDS011;3067;49.470;10.394;2023-08-20T04:47:36;17.80;;;11.47;;
6077;SDS011;3067;49.470;10.394;2023-08-20T04:50:03;13.33;;;11.70;;
6077;SDS011;3067;49.470;10.394;2023-08-20T04:52:32;15.00;;;12.00;;
6077;SDS011;3067;49.470;10.394;2023-08-20T04:55:00;13.30;;;11.40;;
6077;SDS011;3067;49.470;10.394;2023-08-20T04:57:28;13.40;;;12.10;;
6077;SDS011;3067;49.470;10.394;2023-08-20T04:59:55;19.23;;;11.97;;
6077;SDS011;3067;49.470;10.394;2023-08-20T05:02:23;15.57;;;12.37;;
6077;SDS011;3067;49.470;10.394;2023-08-20T05:04:50;14.17;;;12.87;;
6077;SDS011;3067;49.470;10.394;2023-08-20T05:07:17;18.90;;;12.93;;
6077;SDS011;3067;49.470;10.394;2023-08-20T05:09:44;20.63;;;12.60;;
6077;SDS011;3067;49.470;10.394;2023-08-20T05:12:12;15.37;;;12.30;;
6077;SDS011;3067;49.470;10.394;2023-08-20T05:14:39;22.93;;;13.33;;
6077;SDS011;3067;49.470;10.394;2023-08-20T05:17:06;13.87;;;12.57;;
6077;SDS011;3067;49.470;10.394;2023-08-20T05:19:34;13.43;;;12.03;;
6077;SDS011;3067;49.470;10.394;2023-08-20T05:22:01;13.87;;;11.90;;
6077;SDS011;3067;49.470;10.394;2023-08-20T05:24:28;13.23;;;11.87;;
6077;SDS011;3067;49.470;10.394;2023-08-20T05:27:05;13.80;;;12.47;;
6077;SDS011;3067;49.470;10.394;2023-08-20T05:29:34;20.63;;;14.20;;
6077;SDS011;3067;49.470;10.394;2023-08-20T05:32:02;13.47;;;12.07;;
6077;SDS011;3067;49.470;10.394;2023-08-20T05:34:30;14.47;;;12.20;;
6077;SDS011;3067;49.470;10.394;2023-08-20T05:36:57;15.67;;;13.13;;
6077;SDS011;3067;49.470;10.394;2023-08-20T05:39:24;13.90;;;12.60;;
6077;SDS011;3067;49.470;10.394;2023-08-20T05:41:52;18.13;;;12.00;;
6077;SDS011;3067;49.470;10.394;2023-08-20T05:44:19;17.90;;;11.87;;
6077;SDS011;3067;49.470;10.394;2023-08-20T05:46:47;16.73;;;12.97;;
6077;SDS011;3067;49.470;10.394;2023-08-20T05:49:14;16.03;;;11.57;;
6077;SDS011;3067;49.470;10.394;2023-08-20T05:51:42;13.20;;;11.73;;
6077;SDS011;3067;49.470;10.394;2023-08-20T05:54:09;13.03;;;11.73;;
6077;SDS011;3067;49.470;10.394;2023-08-20T05:56:36;12.47;;;11.20;;
6077;SDS011;3067;49.470;10.394;2023-08-20T05:59:03;15.87;;;11.27;;
6077;SDS011;3067;49.470;10.394;2023-08-20T06:01:30;13.23;;;11.83;;
6077;SDS011;3067;49.470;10.394;2023-08-20T06:03:59;16.73;;;11.67;;
6077;SDS011;3067;49.470;10.394;2023-08-20T06:06:27;18.30;;;10.90;;
6077;SDS011;3067;49.470;10.394;2023-08-20T06:08:54;12.20;;;10.90;;
6077;SDS011;3067;49.470;10.394;2023-08-20T06:11:22;19.43;;;12.43;;
6077;SDS011;3067;49.470;10.394;2023-08-20T06:13:50;17.17;;;11.30;;
6077;SDS011;3067;49.470;10.394;2023-08-20T06:16:17;13.50;;;12.20;;
6077;SDS011;3067;49.470;10.394;2023-08-20T06:18:44;13.40;;;12.30;;
6077;SDS011;3067;49.470;10.394;2023-08-20T06:21:12;14.23;;;12.60;;
6077;SDS011;3067;49.470;10.394;2023-08-20T06:23:39;17.43;;;11.87;;
6077;SDS011;3067;49.470;10.394;2023-08-20T06:26:06;17.03;;;11.57;;
6077;SDS011;3067;49.470;10.394;2023-08-20T06:28:33;14.87;;;12.10;;
6077;SDS011;3067;49.470;10.394;2023-08-20T06:31:00;13.10;;;11.77;;
6077;SDS011;3067;49.470;10.394;2023-08-20T06:33:27;12.97;;;11.30;;
6077;SDS011;3067;49.470;10.394;2023-08-20T06:35:54;12.73;;;11.30;;
6077;SDS011;3067;49.470;10.394;2023-08-20T06:38:23;20.63;;;12.27;;
6077;SDS011;3067;49.470;10.394;2023-08-20T06:40:50;15.83;;;12.00;;
6077;SDS011;3067;49.470;10.394;2023-08-20T06:43:18;16.60;;;12.33;;
6077;SDS011;3067;49.470;10.394;2023-08-20T06:45:45;14.00;;;12.60;;
6077;SDS011;3067;49.470;10.394;2023-08-20T06:48:12;13.60;;;12.40;;
6077;SDS011;3067;49.470;10.394;2023-08-20T06:50:41;14.50;;;11.67;;
6077;SDS011;3067;49.470;10.394;2023-08-20T06:53:08;17.50;;;12.70;;
6077;SDS011;3067;49.470;10.394;2023-08-20T06:55:36;20.63;;;12.53;;
6077;SDS011;3067;49.470;10.394;2023-08-20T06:58:03;17.90;;;11.50;;
6077;SDS011;3067;49.470;10.394;2023-08-20T07:00:30;13.20;;;11.83;;
6077;SDS011;3067;49.470;10.394;2023-08-20T07:02:57;13.17;;;11.83;;
6077;SDS011;3067;49.470;10.394;2023-08-20T07:05:24;19.60;;;11.70;;
6077;SDS011;3067;49.470;10.394;2023-08-20T07:07:51;14.13;;;11.67;;
6077;SDS011;3067;49.470;10.394;2023-08-20T07:10:19;23.83;;;11.30;;
6077;SDS011;3067;49.470;10.394;2023-08-20T07:12:47;11.87;;;10.67;;
6077;SDS011;3067;49.470;10.394;2023-08-20T07:15:14;18.73;;;11.50;;
6077;SDS011;3067;49.470;10.394;2023-08-20T07:17:41;16.03;;;11.37;;
6077;SDS011;3067;49.470;10.394;2023-08-20T07:20:09;13.80;;;11.17;;
6077;SDS011;3067;49.470;10.394;2023-08-20T07:22:36;12.47;;;11.17;;
6077;SDS011;3067;49.470;10.394;2023-08-20T07:25:03;17.50;;;11.60;;
6077;SDS011;3067;49.470;10.394;2023-08-20T07:27:30;14.70;;;11.13;;
6077;SDS011;3067;49.470;10.394;2023-08-20T07:29:59;12.13;;;11.00;;
6077;SDS011;3067;49.470;10.394;2023-08-20T07:32:26;14.93;;;10.70;;
6077;SDS011;3067;49.470;10.394;2023-08-20T07:34:53;14.47;;;11.07;;
6077;SDS011;3067;49.470;10.394;2023-08-20T07:37:20;11.70;;;10.60;;
6077;SDS011;3067;49.470;10.394;2023-08-20T07:39:47;21.80;;;11.70;;
6077;SDS011;3067;49.470;10.394;2023-08-20T07:42:14;12.67;;;11.37;;
6077;SDS011;3067;49.470;10.394;2023-08-20T07:44:43;16.63;;;11.80;;
6077;SDS011;3067;49.470;10.394;2023-08-20T07:47:11;13.13;;;11.93;;
6077;SDS011;3067;49.470;10.394;2023-08-20T07:49:38;16.00;;;11.93;;
6077;SDS011;3067;49.470;10.394;2023-08-20T07:52:05;12.33;;;11.13;;
6077;SDS011;3067;49.470;10.394;2023-08-20T07:54:32;14.93;;;11.27;;
6077;SDS011;3067;49.470;10.394;2023-08-20T07:56:59;13.10;;;11.90;;
6077;SDS011;3067;49.470;10.394;2023-08-20T07:59:27;13.63;;;12.03;;
6077;SDS011;3067;49.470;10.394;2023-08-20T08:01:54;18.10;;;11.70;;
6077;SDS011;3067;49.470;10.394;2023-08-20T08:04:23;11.77;;;10.57;;
6077;SDS011;3067;49.470;10.394;2023-08-20T08:06:50;13.23;;;11.93;;
6077;SDS011;3067;49.470;10.394;2023-08-20T08:09:20;14.33;;;10.70;;
6077;SDS011;3067;49.470;10.394;2023-08-20T08:11:48;13.70;;;10.40;;
6077;SDS011;3067;49.470;10.394;2023-08-20T08:14:15;14.10;;;9.93;;
6077;SDS011;3067;49.470;10.394;2023-08-20T08:16:43;10.77;;;9.67;;
6077;SDS011;3067;49.470;10.394;2023-08-20T08:19:11;12.33;;;9.90;;
6077;SDS011;3067;49.470;10.394;2023-08-20T08:21:40;15.70;;;10.37;;
6077;SDS011;3067;49.470;10.394;2023-08-20T08:24:08;10.57;;;9.60;;
6077;SDS011;3067;49.470;10.394;2023-08-20T08:26:35;13.77;;;9.13;;
6077;SDS011;3067;49.470;10.394;2023-08-20T08:29:02;9.23;;;8.43;;
6077;SDS011;3067;49.470;10.394;2023-08-20T08:31:30;10.90;;;8.60;;
6077;SDS011;3067;49.470;10.394;2023-08-20T08:33:57;9.83;;;8.63;;
6077;SDS011;3067;49.470;10.394;2023-08-20T08:36:24;9.53;;;8.63;;
6077;SDS011;3067;49.470;10.394;2023-08-20T08:38:53;9.50;;;8.70;;
6077;SDS011;3067;49.470;10.394;2023-08-20T08:41:21;10.37;;;9.30;;
6077;SDS011;3067;49.470;10.394;2023-08-20T08:43:49;17.00;;;9.17;;
6077;SDS011;3067;49.470;10.394;2023-08-20T08:46:16;9.87;;;8.60;;
6077;SDS011;3067;49.470;10.394;2023-08-20T08:48:45;9.67;;;8.47;;
6077;SDS011;3067;49.470;10.394;2023-08-20T08:51:13;9.90;;;8.90;;
6077;SDS011;3067;49.470;10.394;2023-08-20T08:53:41;10.00;;;8.82;;
6077;SDS011;3067;49.470;10.394;2023-08-20T08:56:11;9.20;;;8.32;;
6077;SDS011;3067;49.470;10.394;2023-08-20T08:58:38;9.80;;;8.90;;
6077;SDS011;3067;49.470;10.394;2023-08-20T09:01:05;10.15;;;9.25;;
6077;SDS011;3067;49.470;10.394;2023-08-20T09:03:32;18.10;;;9.10;;
6077;SDS011;3067;49.470;10.394;2023-08-20T10:23:32;7.95;;;6.80;;
6077;SDS011;3067;49.470;10.394;2023-08-20T10:26:06;10.15;;;6.55;;
6077;SDS011;3067;49.470;10.394;2023-08-20T10:28:34;7.13;;;6.50;;
6077;SDS011;3067;49.470;10.394;2023-08-20T10:31:04;8.68;;;5.97;;
6077;SDS011;3067;49.470;10.394;2023-08-20T10:33:36;6.80;;;6.00;;
6077;SDS011;3067;49.470;10.394;2023-08-20T10:36:07;6.97;;;6.32;;
6077;SDS011;3067;49.470;10.394;2023-08-20T10:38:44;9.02;;;5.90;;
6077;SDS011;3067;49.470;10.394;2023-08-20T10:41:12;8.25;;;6.47;;
6077;SDS011;3067;49.470;10.394;2023-08-20T10:43:45;11.32;;;6.57;;
6077;SDS011;3067;49.470;10.394;2023-08-20T10:46:15;6.53;;;6.03;;
6077;SDS011;3067;49.470;10.394;2023-08-20T10:48:43;6.78;;;5.82;;
6077;SDS011;3067;49.470;10.394;2023-08-20T10:51:14;9.65;;;5.85;;
6077;SDS011;3067;49.470;10.394;2023-08-20T10:56:39;7.18;;;6.10;;
6077;SDS011;3067;49.470;10.394;2023-08-20T10:59:13;8.57;;;5.82;;
6077;SDS011;3067;49.470;10.394;2023-08-20T11:01:43;8.40;;;6.15;;
6077;SDS011;3067;49.470;10.394;2023-08-20T11:04:11;9.90;;;6.13;;
6077;SDS011;3067;49.470;10.394;2023-08-20T11:06:43;7.10;;;6.32;;
6077;SDS011;3067;49.470;10.394;2023-08-20T11:09:12;6.97;;;5.57;;
6077;SDS011;3067;49.470;10.394;2023-08-20T11:11:40;10.52;;;5.82;;
6077;SDS011;3067;49.470;10.394;2023-08-20T11:14:08;5.82;;;5.53;;
6077;SDS011;3067;49.470;10.394;2023-08-20T11:16:39;7.68;;;5.45;;
6077;SDS011;3067;49.470;10.394;2023-08-20T11:19:06;8.65;;;5.70;;
6077;SDS011;3067;49.470;10.394;2023-08-20T11:21:34;6.57;;;5.95;;
6077;SDS011;3067;49.470;10.394;2023-08-20T11:24:02;7.70;;;5.63;;
6077;SDS011;3067;49.470;10.394;2023-08-20T11:26:31;9.57;;;5.72;;
6077;SDS011;3067;49.470;10.394;2023-08-20T11:28:59;6.40;;;5.80;;
6077;SDS011;3067;49.470;10.394;2023-08-20T11:31:27;7.25;;;5.50;;
6077;SDS011;3067;49.470;10.394;2023-08-20T11:33:56;5.47;;;5.03;;
6077;SDS011;3067;49.470;10.394;2023-08-20T11:36:23;9.13;;;5.20;;
6077;SDS011;3067;49.470;10.394;2023-08-20T11:38:51;5.00;;;4.70;;
6077;SDS011;3067;49.470;10.394;2023-08-20T11:41:18;6.57;;;5.80;;
6077;SDS011;3067;49.470;10.394;2023-08-20T11:43:47;11.75;;;5.90;;
6077;SDS011;3067;49.470;10.394;2023-08-20T11:46:15;5.50;;;5.10;;
6077;SDS011;3067;49.470;10.394;2023-08-20T11:49:00;6.18;;;5.38;;
6077;SDS011;3067;49.470;10.394;2023-08-20T11:51:29;9.27;;;5.65;;
6077;SDS011;3067;49.470;10.394;2023-08-20T11:53:56;8.02;;;5.32;;
6077;SDS011;3067;49.470;10.394;2023-08-20T11:56:24;6.50;;;5.70;;
6077;SDS011;3067;49.470;10.394;2023-08-20T11:58:58;10.70;;;5.72;;
6077;SDS011;3067;49.470;10.394;2023-08-20T12:01:25;7.20;;;5.35;;
6077;SDS011;3067;49.470;10.394;2023-08-20T12:03:58;5.97;;;5.50;;
6077;SDS011;3067;49.470;10.394;2023-08-20T12:06:27;9.25;;;5.25;;
6077;SDS011;3067;49.470;10.394;2023-08-20T12:08:56;5.75;;;5.30;;
6077;SDS011;3067;49.470;10.394;2023-08-20T12:11:23;5.40;;;5.10;;
6077;SDS011;3067;49.470;10.394;2023-08-20T12:13:51;9.23;;;5.10;;
6077;SDS011;3067;49.470;10.394;2023-08-20T12:16:21;5.85;;;5.35;;
6077;SDS011;3067;49.470;10.394;2023-08-20T12:18:49;5.60;;;5.28;;
6077;SDS011;3067;49.470;10.394;2023-08-20T12:21:17;8.32;;;5.20;;
6077;SDS011;3067;49.470;10.394;2023-08-20T12:23:45;5.97;;;5.47;;
6077;SDS011;3067;49.470;10.394;2023-08-20T12:26:13;8.63;;;5.30;;
6077;SDS011;3067;49.470;10.394;2023-08-20T12:28:40;9.27;;;5.68;;
6077;SDS011;3067;49.470;10.394;2023-08-20T12:31:08;6.32;;;5.82;;
6077;SDS011;3067;49.470;10.394;2023-08-20T12:33:37;5.82;;;5.22;;
6077;SDS011;3067;49.470;10.394;2023-08-20T12:36:04;6.65;;;5.25;;
6077;SDS011;3067;49.470;10.394;2023-08-20T12:38:31;8.20;;;5.40;;
6077;SDS011;3067;49.470;10.394;2023-08-20T12:40:59;5.53;;;5.03;;
6077;SDS011;3067;49.470;10.394;2023-08-20T12:43:29;5.65;;;5.30;;
6077;SDS011;3067;49.470;10.394;2023-08-20T12:45:56;4.68;;;4.38;;
6077;SDS011;3067;49.470;10.394;2023-08-20T12:48:24;7.00;;;5.43;;
6077;SDS011;3067;49.470;10.394;2023-08-20T12:50:51;5.30;;;5.00;;
6077;SDS011;3067;49.470;10.394;2023-08-20T12:53:18;5.57;;;5.15;;
6077;SDS011;3067;49.470;10.394;2023-08-20T12:55:46;6.45;;;5.10;;
6077;SDS011;3067;49.470;10.394;2023-08-20T12:58:13;6.20;;;4.60;;
6077;SDS011;3067;49.470;10.394;2023-08-20T13:00:40;7.28;;;4.82;;
6077;SDS011;3067;49.470;10.394;2023-08-20T13:03:08;5.25;;;4.78;;
6077;SDS011;3067;49.470;10.394;2023-08-20T13:05:37;5.05;;;4.60;;
6077;SDS011;3067;49.470;10.394;2023-08-20T13:08:05;5.35;;;4.60;;
6077;SDS011;3067;49.470;10.394;2023-08-20T13:10:33;8.15;;;5.22;;
6077;SDS011;3067;49.470;10.394;2023-08-20T13:13:01;4.60;;;4.13;;
6077;SDS011;3067;49.470;10.394;2023-08-20T13:15:30;7.50;;;4.22;;
6077;SDS011;3067;49.470;10.394;2023-08-20T13:17:58;5.80;;;4.82;;
6077;SDS011;3067;49.470;10.394;2023-08-20T13:20:25;6.18;;;4.20;;
6077;SDS011;3067;49.470;10.394;2023-08-20T13:22:54;4.55;;;4.22;;
6077;SDS011;3067;49.470;10.394;2023-08-20T13:25:21;5.32;;;4.85;;
6077;SDS011;3067;49.470;10.394;2023-08-20T13:27:48;7.90;;;4.50;;
6077;SDS011;3067;49.470;10.394;2023-08-20T13:30:16;4.53;;;4.15;;
6077;SDS011;3067;49.470;10.394;2023-08-20T13:32:44;4.82;;;4.45;;
6077;SDS011;3067;49.470;10.394;2023-08-20T13:35:11;4.65;;;4.30;;
6077;SDS011;3067;49.470;10.394;2023-08-20T13:37:39;4.45;;;4.10;;
6077;SDS011;3067;49.470;10.394;2023-08-20T13:40:09;4.13;;;3.70;;
6077;SDS011;3067;49.470;10.394;2023-08-20T13:42:37;7.80;;;3.90;;
6077;SDS011;3067;49.470;10.394;2023-08-20T13:45:04;4.55;;;3.75;;
6077;SDS011;3067;49.470;10.394;2023-08-20T13:47:32;5.03;;;4.13;;
6077;SDS011;3067;49.470;10.394;2023-08-20T13:49:59;3.70;;;3.45;;
6077;SDS011;3067;49.470;10.394;2023-08-20T13:52:28;4.15;;;3.88;;
6077;SDS011;3067;49.470;10.394;2023-08-20T13:54:59;3.90;;;3.60;;
6077;SDS011;3067;49.470;10.394;2023-08-20T13:57:28;4.20;;;3.88;;
6077;SDS011;3067;49.470;10.394;2023-08-20T13:59:58;4.00;;;3.70;;
6077;SDS011;3067;49.470;10.394;2023-08-20T14:02:25;4.03;;;3.78;;
6077;SDS011;3067;49.470;10.394;2023-08-20T14:04:54;4.32;;;3.78;;
6077;SDS011;3067;49.470;10.394;2023-08-20T14:07:21;4.00;;;3.70;;
6077;SDS011;3067;49.470;10.394;2023-08-20T14:09:49;11.20;;;4.00;;
6077;SDS011;3067;49.470;10.394;2023-08-20T14:12:16;3.85;;;3.38;;
6077;SDS011;3067;49.470;10.394;2023-08-20T14:14:46;7.28;;;3.60;;
6077;SDS011;3067;49.470;10.394;2023-08-20T14:17:13;3.85;;;3.65;;
6077;SDS011;3067;49.470;10.394;2023-08-20T14:19:40;3.90;;;3.60;;
6077;SDS011;3067;49.470;10.394;2023-08-20T14:22:07;4.43;;;3.97;;
6077;SDS011;3067;49.470;10.394;2023-08-20T14:24:34;3.90;;;3.70;;
6077;SDS011;3067;49.470;10.394;2023-08-20T14:27:05;8.45;;;3.40;;
6077;SDS011;3067;49.470;10.394;2023-08-20T14:29:33;9.18;;;4.03;;
6077;SDS011;3067;49.470;10.394;2023-08-20T14:32:01;3.30;;;3.10;;
6077;SDS011;3067;49.470;10.394;2023-08-20T14:34:29;4.05;;;3.35;;
6077;SDS011;3067;49.470;10.394;2023-08-20T14:36:56;3.78;;;3.47;;
6077;SDS011;3067;49.470;10.394;2023-08-20T14:39:23;9.75;;;3.80;;
6077;SDS011;3067;49.470;10.394;2023-08-20T14:41:50;3.88;;;3.63;;
6077;SDS011;3067;49.470;10.394;2023-08-20T14:44:17;4.22;;;3.85;;
6077;SDS011;3067;49.470;10.394;2023-08-20T14:46:44;3.55;;;3.30;;
6077;SDS011;3067;49.470;10.394;2023-08-20T14:49:13;5.88;;;3.53;;
6077;SDS011;3067;49.470;10.394;2023-08-20T14:51:40;4.38;;;3.97;;
6077;SDS011;3067;49.470;10.394;2023-08-20T14:54:07;3.58;;;3.38;;
6077;SDS011;3067;49.470;10.394;2023-08-20T14:56:35;6.05;;;3.85;;
6077;SDS011;3067;49.470;10.394;2023-08-20T14:59:02;3.75;;;3.55;;
6077;SDS011;3067;49.470;10.394;2023-08-20T15:01:29;4.00;;;3.65;;
6077;SDS011;3067;49.470;10.394;2023-08-20T15:03:57;4.03;;;3.72;;
6077;SDS011;3067;49.470;10.394;2023-08-20T15:06:25;4.00;;;3.80;;
6077;SDS011;3067;49.470;10.394;2023-08-20T15:08:52;3.88;;;3.50;;
6077;SDS011;3067;49.470;10.394;2023-08-20T15:11:19;5.93;;;3.65;;
6077;SDS011;3067;49.470;10.394;2023-08-20T15:13:46;3.97;;;3.65;;
6077;SDS011;3067;49.470;10.394;2023-08-20T15:48:12;6.38;;;3.42;;
6077;SDS011;3067;49.470;10.394;2023-08-20T15:50:41;4.00;;;3.60;;
6077;SDS011;3067;49.470;10.394;2023-08-20T15:57:33;3.25;;;3.05;;
6077;SDS011;3067;49.470;10.394;2023-08-20T16:04:33;4.70;;;3.45;;
6077;SDS011;3067;49.470;10.394;2023-08-20T16:07:30;4.90;;;3.95;;
6077;SDS011;3067;49.470;10.394;2023-08-20T16:13:16;3.08;;;2.97;;
6077;SDS011;3067;49.470;10.394;2023-08-20T16:15:43;3.63;;;3.42;;
6077;SDS011;3067;49.470;10.394;2023-08-20T16:18:10;3.88;;;3.58;;
6077;SDS011;3067;49.470;10.394;2023-08-20T16:20:38;4.03;;;3.40;;
6077;SDS011;3067;49.470;10.394;2023-08-20T16:23:05;5.28;;;3.50;;
6077;SDS011;3067;49.470;10.394;2023-08-20T16:25:33;7.10;;;3.00;;
6077;SDS011;3067;49.470;10.394;2023-08-20T16:28:02;3.83;;;3.42;;
6077;SDS011;3067;49.470;10.394;2023-08-20T16:30:30;4.30;;;3.22;;
6077;SDS011;3067;49.470;10.394;2023-08-20T16:32:58;5.97;;;3.80;;
6077;SDS011;3067;49.470;10.394;2023-08-20T16:35:25;6.18;;;3.55;;
6077;SDS011;3067;49.470;10.394;2023-08-20T16:37:54;3.90;;;3.60;;
6077;SDS011;3067;49.470;10.394;2023-08-20T16:40:21;9.90;;;3.80;;
6077;SDS011;3067;49.470;10.394;2023-08-20T16:42:49;5.90;;;3.33;;
6077;SDS011;3067;49.470;10.394;2023-08-20T16:45:16;5.30;;;3.05;;
6077;SDS011;3067;49.470;10.394;2023-08-20T16:47:43;4.88;;;3.28;;
6077;SDS011;3067;49.470;10.394;2023-08-20T16:50:10;3.95;;;3.60;;
6077;SDS011;3067;49.470;10.394;2023-08-20T16:52:37;4.28;;;3.75;;
6077;SDS011;3067;49.470;10.394;2023-08-20T16:55:06;3.75;;;3.45;;
6077;SDS011;3067;49.470;10.394;2023-08-20T16:57:34;4.28;;;3.45;;